Time;durP1;ratioP1;P1;durP2;ratioP2;P2;SDS_P1;SDS_P2;PMS_P1;PMS_P2;Temp;Humidity;BMP_temperature;BMP_pressure;BME280_temperature;BME280_humidity;BME280_pressure;Samples;Min_cycle;Max_cycle;Signal;HPM_P1;HPM_P2
2022/03/05 00:01:07;;;;;;;49.70;23.80;;;;;;;;;;764923;183;635569;-66
2022/03/05 00:03:34;;;;;;;46.47;22.63;;;;;;;;;;755575;184;616731;-65
2022/03/05 00:05:59;;;;;;;50.83;27.17;;;;;;;;;;752765;183;625333;-64
2022/03/05 00:08:25;;;;;;;43.53;22.70;;;;;;;;;;750777;184;637501;-64
2022/03/05 00:10:51;;;;;;;54.53;23.30;;;;;;;;;;770304;183;626836;-63
2022/03/05 00:13:16;;;;;;;47.77;24.07;;;;;;;;;;753797;184;625833;-65
2022/03/05 00:15:43;;;;;;;45.13;25.23;;;;;;;;;;760529;184;632837;-64
2022/03/05 00:18:08;;;;;;;48.20;25.23;;;;;;;;;;745788;186;616481;-64
2022/03/05 00:20:34;;;;;;;56.77;27.73;;;;;;;;;;753630;184;624163;-63
2022/03/05 00:23:00;;;;;;;51.57;24.57;;;;;;;;;;743300;184;625841;-64
2022/03/05 00:25:26;;;;;;;50.13;26.10;;;;;;;;;;749601;183;623348;-64
2022/03/05 00:27:52;;;;;;;50.77;25.00;;;;;;;;;;769194;184;631906;-64
2022/03/05 00:30:17;;;;;;;59.10;26.30;;;;;;;;;;762072;184;633440;-64
2022/03/05 00:32:44;;;;;;;45.00;25.23;;;;;;;;;;754200;185;630418;-64
2022/03/05 00:35:10;;;;;;;57.63;28.20;;;;;;;;;;753301;184;614728;-64
2022/03/05 00:37:35;;;;;;;61.73;26.97;;;;;;;;;;752468;184;626589;-64
2022/03/05 00:40:01;;;;;;;58.27;28.60;;;;;;;;;;747231;184;1609868;-64
2022/03/05 00:42:27;;;;;;;67.93;28.27;;;;;;;;;;753418;184;638264;-64
2022/03/05 00:44:53;;;;;;;53.77;28.30;;;;;;;;;;757850;184;635181;-64
2022/03/05 00:47:18;;;;;;;57.83;28.17;;;;;;;;;;754623;184;636088;-65
2022/03/05 00:49:44;;;;;;;52.87;28.07;;;;;;;;;;763631;184;615741;-65
2022/03/05 00:52:10;;;;;;;53.13;28.70;;;;;;;;;;766908;184;626013;-64
2022/03/05 00:54:36;;;;;;;50.47;26.87;;;;;;;;;;761938;184;628126;-65
2022/03/05 00:57:02;;;;;;;57.97;30.92;;;;;;;;;;752790;185;626058;-64
2022/03/05 00:59:28;;;;;;;47.50;26.07;;;;;;;;;;755306;185;625286;-64
2022/03/05 01:01:54;;;;;;;60.40;30.67;;;;;;;;;;754887;184;638720;-64
2022/03/05 01:04:19;;;;;;;61.63;28.97;;;;;;;;;;755494;184;627223;-64
2022/03/05 01:06:45;;;;;;;62.03;28.10;;;;;;;;;;768245;179;617059;-65
2022/03/05 01:09:11;;;;;;;58.23;28.07;;;;;;;;;;756854;183;633063;-64
2022/03/05 01:11:37;;;;;;;57.53;27.20;;;;;;;;;;764745;183;621240;-65
2022/03/05 01:14:03;;;;;;;47.60;27.23;;;;;;;;;;765576;184;624048;-64
2022/03/05 01:16:29;;;;;;;51.23;27.23;;;;;;;;;;759954;184;713973;-64
2022/03/05 01:18:54;;;;;;;48.13;25.30;;;;;;;;;;757278;183;630591;-65
2022/03/05 01:21:20;;;;;;;50.40;25.50;;;;;;;;;;749468;183;622921;-65
2022/03/05 01:23:46;;;;;;;54.70;25.87;;;;;;;;;;754582;183;618916;-65
2022/03/05 01:26:12;;;;;;;56.60;30.07;;;;;;;;;;760667;183;634394;-64
2022/03/05 01:28:38;;;;;;;67.80;28.70;;;;;;;;;;755643;184;637531;-64
2022/03/05 01:31:04;;;;;;;57.87;28.90;;;;;;;;;;761417;183;624371;-66
2022/03/05 01:33:30;;;;;;;56.93;26.70;;;;;;;;;;763439;183;629600;-65
2022/03/05 01:35:55;;;;;;;55.33;26.20;;;;;;;;;;752231;184;627168;-65
2022/03/05 01:38:23;;;;;;;64.80;28.25;;;;;;;;;;757817;185;622633;-64
2022/03/05 01:40:51;;;;;;;58.57;29.30;;;;;;;;;;762318;180;624155;-64
2022/03/05 01:43:14;;;;;;;61.40;29.57;;;;;;;;;;747833;184;630715;-64
2022/03/05 01:45:40;;;;;;;56.83;28.90;;;;;;;;;;756941;184;633206;-65
2022/03/05 01:48:06;;;;;;;51.93;27.17;;;;;;;;;;754138;184;629546;-65
2022/03/05 01:50:32;;;;;;;56.53;28.30;;;;;;;;;;754035;184;618230;-65
2022/03/05 01:52:58;;;;;;;48.50;26.43;;;;;;;;;;751556;184;698340;-65
2022/03/05 01:55:24;;;;;;;56.13;26.07;;;;;;;;;;758333;186;631599;-64
2022/03/05 01:57:49;;;;;;;43.87;25.73;;;;;;;;;;753639;185;638745;-65
2022/03/05 02:00:15;;;;;;;50.13;25.17;;;;;;;;;;764996;183;802009;-65
2022/03/05 02:02:41;;;;;;;49.80;26.10;;;;;;;;;;752793;183;632383;-65
2022/03/05 02:05:09;;;;;;;52.87;26.13;;;;;;;;;;745807;184;637281;-64
2022/03/05 02:07:33;;;;;;;56.70;28.77;;;;;;;;;;750827;185;632572;-65
2022/03/05 02:09:59;;;;;;;48.10;27.83;;;;;;;;;;751280;184;642664;-65
2022/03/05 02:12:29;;;;;;;47.50;25.47;;;;;;;;;;757423;184;631332;-63
2022/03/05 02:14:54;;;;;;;50.57;26.50;;;;;;;;;;762121;184;628105;-65
2022/03/05 02:17:20;;;;;;;50.03;25.00;;;;;;;;;;766548;182;621642;-65
2022/03/05 02:19:46;;;;;;;51.57;27.03;;;;;;;;;;756775;183;623281;-65
2022/03/05 02:22:12;;;;;;;52.00;27.27;;;;;;;;;;751712;183;619957;-64
2022/03/05 02:24:39;;;;;;;53.17;27.20;;;;;;;;;;746767;187;626047;-65
2022/03/05 02:27:04;;;;;;;54.87;27.17;;;;;;;;;;757295;186;629462;-65
2022/03/05 02:29:31;;;;;;;56.93;26.83;;;;;;;;;;761214;184;616270;-65
2022/03/05 02:31:57;;;;;;;49.63;25.80;;;;;;;;;;764824;183;632373;-65
2022/03/05 02:34:23;;;;;;;55.03;28.00;;;;;;;;;;753295;184;622226;-64
2022/03/05 02:36:49;;;;;;;48.33;24.80;;;;;;;;;;756940;184;635076;-65
2022/03/05 02:39:14;;;;;;;45.80;22.07;;;;;;;;;;751682;184;751856;-64
2022/03/05 02:41:40;;;;;;;49.87;24.57;;;;;;;;;;759301;184;626034;-64
2022/03/05 02:44:06;;;;;;;51.00;27.90;;;;;;;;;;757242;184;656340;-65
2022/03/05 02:46:34;;;;;;;64.93;26.63;;;;;;;;;;755906;184;617504;-65
2022/03/05 02:48:58;;;;;;;44.63;23.50;;;;;;;;;;757187;186;632849;-64
2022/03/05 02:51:24;;;;;;;47.90;25.13;;;;;;;;;;762723;184;623868;-65
2022/03/05 02:53:50;;;;;;;56.20;27.57;;;;;;;;;;763452;184;674608;-65
2022/03/05 02:56:15;;;;;;;57.83;28.10;;;;;;;;;;756441;184;628013;-66
2022/03/05 02:58:41;;;;;;;49.17;28.17;;;;;;;;;;749184;183;632341;-64
2022/03/05 03:01:08;;;;;;;60.87;29.93;;;;;;;;;;762292;184;615720;-64
2022/03/05 03:03:33;;;;;;;58.10;28.90;;;;;;;;;;751205;184;619288;-65
2022/03/05 03:05:59;;;;;;;56.57;26.80;;;;;;;;;;754526;186;766140;-64
2022/03/05 03:08:25;;;;;;;54.77;28.33;;;;;;;;;;757750;184;635724;-65
2022/03/05 03:10:51;;;;;;;59.57;27.43;;;;;;;;;;762425;184;627203;-64
2022/03/05 03:13:16;;;;;;;60.33;30.50;;;;;;;;;;764373;184;635619;-64
2022/03/05 03:15:42;;;;;;;62.87;28.30;;;;;;;;;;753093;183;624475;-65
2022/03/05 03:18:08;;;;;;;66.30;28.50;;;;;;;;;;765439;184;630770;-64
2022/03/05 03:20:34;;;;;;;58.77;28.43;;;;;;;;;;753068;184;627095;-67
2022/03/05 03:23:00;;;;;;;47.37;27.50;;;;;;;;;;763775;184;625100;-65
2022/03/05 03:25:26;;;;;;;63.33;29.67;;;;;;;;;;767466;180;632643;-64
2022/03/05 03:27:51;;;;;;;59.83;28.13;;;;;;;;;;764530;181;633585;-65
2022/03/05 03:30:17;;;;;;;59.43;26.90;;;;;;;;;;750191;184;643089;-65
2022/03/05 03:32:43;;;;;;;58.80;27.13;;;;;;;;;;772230;183;614097;-65
2022/03/05 03:35:09;;;;;;;57.93;29.57;;;;;;;;;;767232;183;638381;-65
2022/03/05 03:37:35;;;;;;;66.97;30.43;;;;;;;;;;765180;184;647076;-64
2022/03/05 03:40:01;;;;;;;57.10;29.10;;;;;;;;;;757386;184;615653;-64
2022/03/05 03:42:27;;;;;;;62.93;30.40;;;;;;;;;;753891;184;624352;-64
2022/03/05 03:44:52;;;;;;;71.73;34.40;;;;;;;;;;753411;183;634293;-65
2022/03/05 03:47:18;;;;;;;69.87;34.80;;;;;;;;;;758116;184;633746;-63
2022/03/05 03:49:44;;;;;;;74.73;34.30;;;;;;;;;;752115;184;625975;-64
2022/03/05 03:52:10;;;;;;;67.97;33.60;;;;;;;;;;752824;184;620985;-64
2022/03/05 03:54:36;;;;;;;80.53;32.80;;;;;;;;;;763486;184;616881;-64
2022/03/05 03:57:02;;;;;;;61.20;31.47;;;;;;;;;;759132;184;628584;-65
2022/03/05 03:59:28;;;;;;;62.80;33.30;;;;;;;;;;756496;184;632084;-63
2022/03/05 04:01:53;;;;;;;70.87;32.60;;;;;;;;;;758345;184;631717;-64
2022/03/05 04:04:19;;;;;;;70.13;32.37;;;;;;;;;;766341;184;630682;-64
2022/03/05 04:09:17;;;;;;;81.67;33.90;;;;;;;;;;752032;185;625320;-64
2022/03/05 04:11:42;;;;;;;76.83;34.00;;;;;;;;;;752670;184;623712;-64
2022/03/05 04:14:08;;;;;;;72.57;34.10;;;;;;;;;;762116;180;746482;-64
2022/03/05 04:16:34;;;;;;;68.20;32.90;;;;;;;;;;749972;184;618731;-65
2022/03/05 04:19:00;;;;;;;79.40;33.88;;;;;;;;;;748708;184;628526;-64
2022/03/05 04:21:26;;;;;;;84.50;36.23;;;;;;;;;;754214;184;626933;-64
2022/03/05 04:23:52;;;;;;;76.33;34.53;;;;;;;;;;754545;184;632996;-64
2022/03/05 04:26:17;;;;;;;92.90;38.60;;;;;;;;;;751155;184;615144;-64
2022/03/05 04:28:44;;;;;;;78.57;36.40;;;;;;;;;;756702;185;628497;-64
2022/03/05 04:31:09;;;;;;;77.13;35.57;;;;;;;;;;761804;183;638488;-64
2022/03/05 04:33:35;;;;;;;80.60;38.17;;;;;;;;;;761066;184;633152;-64
2022/03/05 04:36:01;;;;;;;92.57;36.50;;;;;;;;;;757080;184;616212;-64
2022/03/05 04:38:27;;;;;;;88.63;37.30;;;;;;;;;;752377;184;640049;-63
2022/03/05 04:40:52;;;;;;;66.67;31.77;;;;;;;;;;756795;183;618996;-64
2022/03/05 04:43:18;;;;;;;85.10;36.33;;;;;;;;;;765466;183;617120;-64
2022/03/05 04:45:44;;;;;;;80.60;35.10;;;;;;;;;;769266;183;625983;-64
2022/03/05 04:48:10;;;;;;;93.20;37.70;;;;;;;;;;765136;184;632056;-64
2022/03/05 04:50:36;;;;;;;94.17;39.77;;;;;;;;;;765501;184;652121;-64
2022/03/05 04:53:02;;;;;;;87.67;38.33;;;;;;;;;;755448;183;628964;-64
2022/03/05 04:55:28;;;;;;;104.67;41.17;;;;;;;;;;762743;184;629694;-64
2022/03/05 04:57:53;;;;;;;87.53;38.27;;;;;;;;;;760899;184;623930;-64
2022/03/05 05:00:19;;;;;;;94.40;40.40;;;;;;;;;;757444;184;615120;-67
2022/03/05 05:02:45;;;;;;;101.70;41.60;;;;;;;;;;752741;184;628592;-64
2022/03/05 05:05:11;;;;;;;92.63;40.50;;;;;;;;;;758521;183;631756;-65
2022/03/05 05:07:37;;;;;;;93.90;40.30;;;;;;;;;;760633;183;625175;-64
2022/03/05 05:10:03;;;;;;;99.23;43.27;;;;;;;;;;765999;181;627790;-63
2022/03/05 05:12:29;;;;;;;106.13;42.10;;;;;;;;;;760879;183;628820;-64
2022/03/05 05:14:54;;;;;;;99.23;40.13;;;;;;;;;;753272;184;628379;-64
2022/03/05 05:17:20;;;;;;;110.67;45.60;;;;;;;;;;761340;183;623635;-64
2022/03/05 05:19:46;;;;;;;122.07;44.23;;;;;;;;;;752632;184;640578;-64
2022/03/05 05:22:12;;;;;;;150.27;61.80;;;;;;;;;;754883;184;620145;-64
2022/03/05 05:24:38;;;;;;;173.53;77.47;;;;;;;;;;757872;184;643153;-64
2022/03/05 05:27:04;;;;;;;223.05;94.65;;;;;;;;;;753297;184;704826;-63
2022/03/05 05:29:30;;;;;;;130.70;58.50;;;;;;;;;;754522;184;623183;-64
2022/03/05 05:31:56;;;;;;;126.03;51.30;;;;;;;;;;760887;184;619030;-64
2022/03/05 05:34:21;;;;;;;105.93;46.50;;;;;;;;;;756595;185;627180;-64
2022/03/05 05:36:47;;;;;;;114.23;43.70;;;;;;;;;;765399;184;627011;-64
2022/03/05 05:39:13;;;;;;;127.50;49.67;;;;;;;;;;763071;184;626490;-64
2022/03/05 05:41:39;;;;;;;106.63;44.60;;;;;;;;;;765966;184;616277;-64
2022/03/05 05:44:05;;;;;;;113.10;51.20;;;;;;;;;;752318;184;618553;-64
2022/03/05 05:46:31;;;;;;;129.93;62.53;;;;;;;;;;763314;184;625191;-63
2022/03/05 05:48:57;;;;;;;106.20;46.27;;;;;;;;;;767153;184;633847;-63
2022/03/05 05:51:23;;;;;;;110.10;46.63;;;;;;;;;;765661;181;631850;-64
2022/03/05 05:53:48;;;;;;;100.97;44.10;;;;;;;;;;762290;183;642520;-64
2022/03/05 05:56:14;;;;;;;117.63;50.57;;;;;;;;;;760840;184;643916;-63
2022/03/05 05:58:40;;;;;;;111.30;43.13;;;;;;;;;;754599;185;635864;-62
2022/03/05 06:01:06;;;;;;;108.90;44.70;;;;;;;;;;755242;184;619258;-64
2022/03/05 06:03:32;;;;;;;109.23;43.40;;;;;;;;;;754769;184;641300;-63
2022/03/05 06:05:58;;;;;;;121.10;43.80;;;;;;;;;;758336;183;637013;-64
2022/03/05 06:08:24;;;;;;;121.77;46.70;;;;;;;;;;758403;184;626496;-64
2022/03/05 06:10:51;;;;;;;106.70;46.20;;;;;;;;;;752555;184;627677;-64
2022/03/05 06:13:15;;;;;;;108.43;46.20;;;;;;;;;;759158;184;627710;-63
2022/03/05 06:15:41;;;;;;;112.23;46.77;;;;;;;;;;756765;184;669025;-63
2022/03/05 06:18:08;;;;;;;109.93;47.20;;;;;;;;;;755147;184;628779;-64
2022/03/05 06:20:33;;;;;;;137.03;63.27;;;;;;;;;;760307;184;645200;-64
2022/03/05 06:22:59;;;;;;;163.17;65.67;;;;;;;;;;755085;183;629395;-62
2022/03/05 06:25:24;;;;;;;341.33;143.00;;;;;;;;;;756010;184;646354;-63
2022/03/05 06:27:50;;;;;;;133.60;50.57;;;;;;;;;;758669;184;622915;-62
2022/03/05 06:30:16;;;;;;;134.10;51.83;;;;;;;;;;753927;184;630373;-63
2022/03/05 06:32:42;;;;;;;117.00;47.13;;;;;;;;;;755721;184;629512;-62
2022/03/05 06:35:09;;;;;;;116.00;46.40;;;;;;;;;;754222;184;632954;-63
2022/03/05 06:37:36;;;;;;;112.10;49.23;;;;;;;;;;759487;184;614870;-64
2022/03/05 06:40:02;;;;;;;118.73;46.73;;;;;;;;;;757243;184;626755;-63
2022/03/05 06:42:28;;;;;;;112.00;45.47;;;;;;;;;;757328;184;675543;-64
2022/03/05 06:44:54;;;;;;;122.00;47.00;;;;;;;;;;754909;184;654055;-63
2022/03/05 06:47:21;;;;;;;105.23;47.70;;;;;;;;;;757896;184;637433;-63
2022/03/05 06:49:47;;;;;;;108.07;44.63;;;;;;;;;;755504;183;629028;-63
2022/03/05 06:52:13;;;;;;;125.40;44.20;;;;;;;;;;755279;184;627409;-63
2022/03/05 06:54:38;;;;;;;122.63;49.07;;;;;;;;;;758126;183;646564;-62
2022/03/05 06:57:04;;;;;;;119.83;46.90;;;;;;;;;;758396;184;627010;-62
2022/03/05 06:59:30;;;;;;;132.43;46.73;;;;;;;;;;751532;184;736026;-61
2022/03/05 07:01:56;;;;;;;105.13;44.73;;;;;;;;;;758583;184;691730;-61
2022/03/05 07:04:22;;;;;;;143.13;51.47;;;;;;;;;;753180;183;635148;-61
2022/03/05 07:06:48;;;;;;;125.27;48.07;;;;;;;;;;759218;183;657361;-61
2022/03/05 07:09:14;;;;;;;123.17;47.20;;;;;;;;;;760482;184;625237;-61
2022/03/05 07:11:39;;;;;;;132.63;52.87;;;;;;;;;;756984;184;623872;-61
2022/03/05 07:14:05;;;;;;;135.98;56.25;;;;;;;;;;757439;184;629821;-62
2022/03/05 07:16:31;;;;;;;128.17;52.17;;;;;;;;;;759535;184;634268;-62
2022/03/05 07:18:57;;;;;;;106.77;44.83;;;;;;;;;;753648;183;655381;-62
2022/03/05 07:21:23;;;;;;;104.53;43.53;;;;;;;;;;756295;184;624742;-63
2022/03/05 07:23:49;;;;;;;132.50;51.20;;;;;;;;;;756531;184;628703;-62
2022/03/05 07:26:14;;;;;;;129.13;53.83;;;;;;;;;;759914;184;625177;-62
2022/03/05 07:28:40;;;;;;;114.47;48.20;;;;;;;;;;758319;184;629058;-62
2022/03/05 07:31:07;;;;;;;104.67;46.20;;;;;;;;;;757052;184;636946;-64
2022/03/05 07:33:32;;;;;;;123.40;50.37;;;;;;;;;;759323;184;633797;-62
2022/03/05 07:35:58;;;;;;;653.07;260.17;;;;;;;;;;752160;184;638997;-62
2022/03/05 07:38:24;;;;;;;102.33;43.03;;;;;;;;;;754507;184;628173;-60
2022/03/05 07:40:50;;;;;;;139.07;66.97;;;;;;;;;;755134;186;628080;-60
2022/03/05 07:43:17;;;;;;;90.30;42.30;;;;;;;;;;755311;184;631835;-60
2022/03/05 07:45:42;;;;;;;76.10;35.40;;;;;;;;;;755862;184;630223;-61
2022/03/05 07:48:08;;;;;;;103.07;43.83;;;;;;;;;;752212;184;637880;-61
2022/03/05 07:50:34;;;;;;;65.00;29.17;;;;;;;;;;753114;184;629751;-61
2022/03/05 07:53:00;;;;;;;66.50;29.00;;;;;;;;;;755372;184;618594;-60
2022/03/05 07:55:26;;;;;;;70.00;29.10;;;;;;;;;;752306;185;624971;-61
2022/03/05 07:57:51;;;;;;;61.33;31.10;;;;;;;;;;759161;184;637087;-61
2022/03/05 08:00:17;;;;;;;74.50;34.57;;;;;;;;;;749503;184;638664;-61
2022/03/05 08:02:43;;;;;;;90.77;44.93;;;;;;;;;;756014;184;622323;-60
2022/03/05 08:05:09;;;;;;;69.97;33.00;;;;;;;;;;760801;184;629181;-64
2022/03/05 08:07:35;;;;;;;114.90;52.70;;;;;;;;;;755769;184;637108;-60
2022/03/05 08:10:01;;;;;;;63.50;31.20;;;;;;;;;;756108;184;641412;-61
2022/03/05 08:12:27;;;;;;;62.90;27.60;;;;;;;;;;757353;183;668273;-61
2022/03/05 08:14:53;;;;;;;70.93;34.00;;;;;;;;;;756571;183;667948;-61
2022/03/05 08:17:18;;;;;;;57.27;26.83;;;;;;;;;;758151;183;619959;-61
2022/03/05 08:19:44;;;;;;;48.80;21.50;;;;;;;;;;757706;183;620471;-61
2022/03/05 08:22:10;;;;;;;50.40;22.30;;;;;;;;;;759359;184;649313;-61
2022/03/05 08:24:36;;;;;;;46.67;20.70;;;;;;;;;;754715;184;635182;-62
2022/03/05 08:27:02;;;;;;;76.20;29.00;;;;;;;;;;756607;184;633793;-62
2022/03/05 08:29:28;;;;;;;58.40;26.83;;;;;;;;;;765953;183;629120;-62
2022/03/05 08:31:53;;;;;;;63.53;29.43;;;;;;;;;;757600;184;637189;-64
2022/03/05 08:34:19;;;;;;;57.80;30.13;;;;;;;;;;759158;183;627630;-61
2022/03/05 08:36:47;;;;;;;69.13;28.43;;;;;;;;;;761974;184;633685;-63
2022/03/05 08:39:11;;;;;;;53.63;28.30;;;;;;;;;;762336;184;627817;-62
2022/03/05 08:41:37;;;;;;;60.10;26.43;;;;;;;;;;762030;184;623807;-62
2022/03/05 08:44:03;;;;;;;100.97;44.67;;;;;;;;;;752632;184;627520;-62
2022/03/05 08:46:29;;;;;;;60.00;28.30;;;;;;;;;;759195;183;626212;-63
2022/03/05 08:48:55;;;;;;;60.50;30.80;;;;;;;;;;751113;183;634480;-62
2022/03/05 08:51:20;;;;;;;48.13;27.40;;;;;;;;;;756514;184;625774;-62
2022/03/05 08:53:47;;;;;;;77.47;33.77;;;;;;;;;;756226;184;622963;-63
2022/03/05 08:56:13;;;;;;;61.67;29.53;;;;;;;;;;753818;185;632879;-62
2022/03/05 08:58:38;;;;;;;67.20;28.87;;;;;;;;;;759449;184;628882;-62
2022/03/05 09:01:05;;;;;;;71.33;31.77;;;;;;;;;;758913;184;623428;-65
2022/03/05 09:03:30;;;;;;;48.03;23.53;;;;;;;;;;753287;184;677223;-62
2022/03/05 09:05:57;;;;;;;73.10;35.50;;;;;;;;;;750287;185;622550;-63
2022/03/05 09:08:22;;;;;;;85.53;38.70;;;;;;;;;;755677;184;633838;-63
2022/03/05 09:10:48;;;;;;;63.67;29.53;;;;;;;;;;753963;184;637875;-62
2022/03/05 09:13:14;;;;;;;42.63;19.27;;;;;;;;;;755464;183;624451;-63
2022/03/05 09:15:39;;;;;;;105.20;43.47;;;;;;;;;;760539;183;630060;-63
2022/03/05 09:18:05;;;;;;;65.03;35.03;;;;;;;;;;757060;185;628054;-62
2022/03/05 09:20:31;;;;;;;53.93;24.17;;;;;;;;;;754709;184;618796;-63
2022/03/05 09:22:58;;;;;;;57.17;30.37;;;;;;;;;;756874;184;630626;-63
2022/03/05 09:25:23;;;;;;;73.80;29.90;;;;;;;;;;760959;185;617140;-64
2022/03/05 09:27:49;;;;;;;65.07;33.20;;;;;;;;;;752530;186;630768;-63
2022/03/05 09:30:14;;;;;;;42.77;20.67;;;;;;;;;;752257;184;623858;-63
2022/03/05 09:32:40;;;;;;;46.27;21.97;;;;;;;;;;757626;183;630455;-63
2022/03/05 09:35:07;;;;;;;64.47;30.33;;;;;;;;;;752818;183;629231;-62
2022/03/05 09:37:34;;;;;;;52.73;24.47;;;;;;;;;;754714;184;626346;-64
2022/03/05 09:39:58;;;;;;;69.57;30.13;;;;;;;;;;754638;184;624804;-63
2022/03/05 09:42:24;;;;;;;61.13;26.50;;;;;;;;;;773935;183;631858;-64
2022/03/05 09:44:50;;;;;;;58.17;26.80;;;;;;;;;;749692;183;632758;-63
2022/03/05 09:47:16;;;;;;;40.27;20.37;;;;;;;;;;749340;183;617422;-63
2022/03/05 09:49:42;;;;;;;53.87;27.90;;;;;;;;;;758851;184;626105;-63
2022/03/05 09:52:07;;;;;;;51.50;24.83;;;;;;;;;;755560;185;627113;-63
2022/03/05 09:54:33;;;;;;;61.07;28.07;;;;;;;;;;751916;184;725067;-64
2022/03/05 09:56:59;;;;;;;50.10;22.37;;;;;;;;;;760278;186;618875;-63
2022/03/05 09:59:25;;;;;;;47.53;21.77;;;;;;;;;;756398;184;630630;-62
2022/03/05 10:01:51;;;;;;;29.50;15.07;;;;;;;;;;750412;184;635271;-63
2022/03/05 10:04:17;;;;;;;33.57;17.93;;;;;;;;;;760739;184;618300;-63
2022/03/05 10:06:43;;;;;;;26.20;16.90;;;;;;;;;;756293;183;634197;-62
2022/03/05 10:09:09;;;;;;;33.37;16.43;;;;;;;;;;748884;184;1224194;-62
2022/03/05 10:11:37;;;;;;;34.97;15.00;;;;;;;;;;752036;184;634543;-63
2022/03/05 10:14:03;;;;;;;46.67;23.07;;;;;;;;;;759708;184;635648;-64
2022/03/05 10:16:29;;;;;;;30.97;15.80;;;;;;;;;;754043;183;785838;-63
2022/03/05 10:18:54;;;;;;;42.33;23.13;;;;;;;;;;751163;184;624858;-63
2022/03/05 10:21:20;;;;;;;49.40;25.00;;;;;;;;;;758531;184;633940;-63
2022/03/05 10:23:48;;;;;;;33.90;16.50;;;;;;;;;;761678;184;627215;-63
2022/03/05 10:26:21;;;;;;;27.27;15.83;;;;;;;;;;751262;184;628500;-62
2022/03/05 10:28:42;;;;;;;40.03;19.53;;;;;;;;;;754837;184;628468;-62
2022/03/05 10:31:09;;;;;;;37.27;16.73;;;;;;;;;;754774;184;645757;-62
2022/03/05 10:33:35;;;;;;;40.93;21.70;;;;;;;;;;758392;184;633299;-63
2022/03/05 10:36:01;;;;;;;29.43;16.27;;;;;;;;;;756853;184;620326;-62
2022/03/05 10:38:32;;;;;;;31.97;16.67;;;;;;;;;;768075;183;640069;-62
2022/03/05 10:40:58;;;;;;;37.63;20.10;;;;;;;;;;759283;184;634366;-63
2022/03/05 10:43:24;;;;;;;47.87;23.93;;;;;;;;;;764074;183;618687;-61
2022/03/05 10:45:50;;;;;;;44.23;22.67;;;;;;;;;;754885;184;645175;-62
2022/03/05 10:48:20;;;;;;;41.07;19.77;;;;;;;;;;744092;185;622439;-61
2022/03/05 10:50:46;;;;;;;39.83;16.27;;;;;;;;;;750773;184;642319;-62
2022/03/05 10:53:12;;;;;;;47.40;22.27;;;;;;;;;;754658;183;653022;-63
2022/03/05 10:55:38;;;;;;;40.30;19.90;;;;;;;;;;759331;183;619231;-63
2022/03/05 10:58:03;;;;;;;35.47;18.77;;;;;;;;;;762430;183;624864;-62
2022/03/05 11:00:29;;;;;;;41.30;22.50;;;;;;;;;;752152;184;633670;-62
2022/03/05 11:02:55;;;;;;;38.90;22.03;;;;;;;;;;753985;184;637129;-62
2022/03/05 11:05:21;;;;;;;42.57;22.00;;;;;;;;;;752064;183;639422;-61
2022/03/05 11:07:49;;;;;;;45.20;20.63;;;;;;;;;;763456;183;637320;-61
2022/03/05 11:10:13;;;;;;;41.67;19.50;;;;;;;;;;756786;183;623087;-62
2022/03/05 11:12:39;;;;;;;43.83;19.33;;;;;;;;;;761043;184;628825;-63
2022/03/05 11:15:06;;;;;;;34.93;16.10;;;;;;;;;;754055;184;628863;-62
2022/03/05 11:17:32;;;;;;;33.93;17.03;;;;;;;;;;756204;184;644148;-62
2022/03/05 11:19:58;;;;;;;32.50;19.10;;;;;;;;;;758793;183;617049;-62
2022/03/05 11:22:23;;;;;;;39.13;19.33;;;;;;;;;;755122;184;632928;-62
2022/03/05 11:24:49;;;;;;;37.33;16.37;;;;;;;;;;755808;184;635565;-62
2022/03/05 11:27:15;;;;;;;34.33;13.40;;;;;;;;;;757754;184;634844;-62
2022/03/05 11:29:47;;;;;;;31.20;16.17;;;;;;;;;;762784;180;634382;-61
2022/03/05 11:32:13;;;;;;;23.43;14.90;;;;;;;;;;755187;184;617954;-62
2022/03/05 11:34:48;;;;;;;38.73;19.03;;;;;;;;;;753799;183;635467;-62
2022/03/05 11:37:14;;;;;;;40.67;22.30;;;;;;;;;;756125;184;628853;-62
2022/03/05 11:39:41;;;;;;;46.43;21.20;;;;;;;;;;762321;184;627960;-63
2022/03/05 11:42:07;;;;;;;46.37;24.43;;;;;;;;;;756506;184;630720;-63
2022/03/05 11:44:39;;;;;;;38.20;17.60;;;;;;;;;;752814;184;625254;-62
2022/03/05 11:47:11;;;;;;;34.17;15.40;;;;;;;;;;763762;184;630104;-62
2022/03/05 11:49:42;;;;;;;32.37;17.30;;;;;;;;;;761666;183;633832;-64
2022/03/05 11:52:08;;;;;;;25.37;11.20;;;;;;;;;;756805;183;631208;-63
2022/03/05 11:54:34;;;;;;;28.93;13.97;;;;;;;;;;754471;184;681520;-63
2022/03/05 11:57:03;;;;;;;27.07;14.97;;;;;;;;;;762880;183;627366;-63
2022/03/05 11:59:32;;;;;;;9.57;5.57;;;;;;;;;;761833;183;625435;-62
2022/03/05 12:01:58;;;;;;;22.97;12.10;;;;;;;;;;756552;183;627567;-63
2022/03/05 12:04:27;;;;;;;24.33;14.27;;;;;;;;;;755708;183;627195;-63
2022/03/05 12:06:52;;;;;;;28.97;14.17;;;;;;;;;;757916;184;631360;-63
2022/03/05 12:09:23;;;;;;;25.33;13.33;;;;;;;;;;757713;183;624823;-63
2022/03/05 12:11:54;;;;;;;29.80;15.73;;;;;;;;;;756492;184;619918;-64
2022/03/05 12:14:20;;;;;;;39.50;18.80;;;;;;;;;;758585;184;630352;-65
2022/03/05 12:16:46;;;;;;;44.93;20.97;;;;;;;;;;756842;184;629739;-63
2022/03/05 12:19:12;;;;;;;39.03;21.17;;;;;;;;;;757238;184;647827;-62
2022/03/05 12:21:38;;;;;;;36.30;17.53;;;;;;;;;;758358;184;636946;-63
2022/03/05 12:24:07;;;;;;;36.10;15.87;;;;;;;;;;768519;184;625667;-62
2022/03/05 12:26:37;;;;;;;31.77;16.23;;;;;;;;;;753773;184;623407;-63
2022/03/05 12:29:03;;;;;;;26.33;13.20;;;;;;;;;;756147;184;717992;-63
2022/03/05 12:31:29;;;;;;;43.17;23.30;;;;;;;;;;756930;184;624637;-63
2022/03/05 12:33:55;;;;;;;35.30;17.67;;;;;;;;;;758270;184;610010;-63
2022/03/05 12:36:22;;;;;;;29.70;16.80;;;;;;;;;;747333;184;1189530;-63
2022/03/05 12:38:57;;;;;;;31.63;21.40;;;;;;;;;;759214;184;615863;-63
2022/03/05 12:41:24;;;;;;;26.67;13.20;;;;;;;;;;757130;184;650935;-63
2022/03/05 12:43:50;;;;;;;28.40;15.00;;;;;;;;;;758592;184;661867;-63
2022/03/05 12:46:15;;;;;;;28.40;15.93;;;;;;;;;;758468;183;701178;-64
2022/03/05 12:48:41;;;;;;;31.90;17.83;;;;;;;;;;754568;184;647362;-62
2022/03/05 12:51:08;;;;;;;30.08;18.12;;;;;;;;;;756981;184;627096;-61
2022/03/05 12:53:35;;;;;;;30.83;15.90;;;;;;;;;;765492;180;618948;-63
2022/03/05 12:55:59;;;;;;;28.47;13.97;;;;;;;;;;756872;184;636954;-63
2022/03/05 12:58:25;;;;;;;51.80;27.43;;;;;;;;;;754500;184;635010;-64
2022/03/05 13:00:51;;;;;;;54.80;30.30;;;;;;;;;;761659;184;622755;-64
2022/03/05 13:03:17;;;;;;;39.17;21.67;;;;;;;;;;750593;184;634303;-63
2022/03/05 13:05:43;;;;;;;18.00;9.80;;;;;;;;;;758454;183;634107;-62
2022/03/05 13:08:11;;;;;;;32.67;19.50;;;;;;;;;;758360;184;613555;-63
2022/03/05 13:10:37;;;;;;;31.60;14.77;;;;;;;;;;756134;184;626702;-64
2022/03/05 13:13:03;;;;;;;31.63;14.43;;;;;;;;;;761081;183;716862;-64
2022/03/05 13:15:29;;;;;;;20.20;11.83;;;;;;;;;;755021;183;639135;-63
2022/03/05 13:17:58;;;;;;;26.93;14.00;;;;;;;;;;768672;179;623707;-64
2022/03/05 13:20:21;;;;;;;23.37;12.77;;;;;;;;;;751928;183;628101;-64
2022/03/05 13:22:48;;;;;;;31.83;19.00;;;;;;;;;;753415;184;627943;-63
2022/03/05 13:25:14;;;;;;;28.67;13.50;;;;;;;;;;764833;184;641545;-63
2022/03/05 13:27:40;;;;;;;31.63;14.17;;;;;;;;;;763909;184;632485;-63
2022/03/05 13:30:06;;;;;;;19.13;11.00;;;;;;;;;;762512;184;620601;-63
2022/03/05 13:32:38;;;;;;;35.57;20.53;;;;;;;;;;756134;184;624060;-62
2022/03/05 13:35:04;;;;;;;33.27;16.20;;;;;;;;;;747619;187;636491;-63
2022/03/05 13:37:30;;;;;;;106.90;43.53;;;;;;;;;;756835;184;670596;-62
2022/03/05 13:39:56;;;;;;;32.33;14.80;;;;;;;;;;756764;184;659827;-63
2022/03/05 13:42:22;;;;;;;30.97;12.47;;;;;;;;;;752931;184;652302;-62
2022/03/05 13:44:48;;;;;;;28.40;14.90;;;;;;;;;;748245;184;645699;-63
2022/03/05 13:47:14;;;;;;;70.47;35.87;;;;;;;;;;751445;184;632165;-61
2022/03/05 13:49:41;;;;;;;32.60;17.17;;;;;;;;;;758821;184;633772;-62
2022/03/05 13:52:06;;;;;;;23.97;12.27;;;;;;;;;;749136;184;971637;-64
2022/03/05 13:54:33;;;;;;;44.30;25.00;;;;;;;;;;753898;184;649849;-63
2022/03/05 13:57:02;;;;;;;41.70;20.47;;;;;;;;;;757647;183;679219;-63